sensor_id;sensor_type;location;lat;lon;timestamp;temperature;humidity
39277;DHT22;63149;48.086;-1.606;2023-07-29T05:02:43;18.80;99.90
39277;DHT22;63149;48.086;-1.606;2023-07-29T05:05:11;18.80;99.90
39277;DHT22;63149;48.086;-1.606;2023-07-29T05:07:38;18.80;99.90
39277;DHT22;63149;48.086;-1.606;2023-07-29T05:10:06;18.80;99.90
39277;DHT22;63149;48.086;-1.606;2023-07-29T05:12:33;18.80;99.90
39277;DHT22;63149;48.086;-1.606;2023-07-29T05:15:00;18.80;99.90
39277;DHT22;63149;48.086;-1.606;2023-07-29T05:17:28;18.80;99.90
39277;DHT22;63149;48.086;-1.606;2023-07-29T05:19:56;18.80;99.90
39277;DHT22;63149;48.086;-1.606;2023-07-29T05:22:23;18.80;99.90
39277;DHT22;63149;48.086;-1.606;2023-07-29T05:24:50;18.80;99.90
39277;DHT22;63149;48.086;-1.606;2023-07-29T05:27:17;18.80;99.90
39277;DHT22;63149;48.086;-1.606;2023-07-29T05:29:44;18.80;99.90
39277;DHT22;63149;48.086;-1.606;2023-07-29T05:32:11;18.80;99.90
39277;DHT22;63149;48.086;-1.606;2023-07-29T05:34:38;18.90;99.90
39277;DHT22;63149;48.086;-1.606;2023-07-29T05:37:06;18.80;99.90
39277;DHT22;63149;48.086;-1.606;2023-07-29T05:39:33;18.80;99.90
39277;DHT22;63149;48.086;-1.606;2023-07-29T05:42:00;18.80;99.90
39277;DHT22;63149;48.086;-1.606;2023-07-29T05:44:29;18.80;99.90
39277;DHT22;63149;48.086;-1.606;2023-07-29T05:46:56;18.80;99.90
39277;DHT22;63149;48.086;-1.606;2023-07-29T05:49:23;18.80;99.90
39277;DHT22;63149;48.086;-1.606;2023-07-29T05:51:50;18.80;99.90
39277;DHT22;63149;48.086;-1.606;2023-07-29T05:54:20;18.80;99.90
39277;DHT22;63149;48.086;-1.606;2023-07-29T05:56:47;18.80;99.90
39277;DHT22;63149;48.086;-1.606;2023-07-29T05:59:14;18.90;99.90
39277;DHT22;63149;48.086;-1.606;2023-07-29T06:01:40;18.90;99.90
39277;DHT22;63149;48.086;-1.606;2023-07-29T06:04:07;18.90;99.90
39277;DHT22;63149;48.086;-1.606;2023-07-29T06:06:34;18.90;99.90
39277;DHT22;63149;48.086;-1.606;2023-07-29T06:09:01;18.90;99.90
39277;DHT22;63149;48.086;-1.606;2023-07-29T06:11:29;18.90;99.90
39277;DHT22;63149;48.086;-1.606;2023-07-29T06:13:56;18.90;99.90
39277;DHT22;63149;48.086;-1.606;2023-07-29T06:16:23;18.90;99.90
39277;DHT22;63149;48.086;-1.606;2023-07-29T06:18:50;19.00;99.90
39277;DHT22;63149;48.086;-1.606;2023-07-29T06:21:18;18.90;99.90
39277;DHT22;63149;48.086;-1.606;2023-07-29T06:23:45;19.00;99.90
39277;DHT22;63149;48.086;-1.606;2023-07-29T06:26:12;19.00;99.90
39277;DHT22;63149;48.086;-1.606;2023-07-29T06:28:41;19.00;99.90
39277;DHT22;63149;48.086;-1.606;2023-07-29T06:31:08;19.00;99.90
39277;DHT22;63149;48.086;-1.606;2023-07-29T06:33:34;19.00;99.90
39277;DHT22;63149;48.086;-1.606;2023-07-29T06:36:01;19.00;99.90
39277;DHT22;63149;48.086;-1.606;2023-07-29T06:38:28;19.00;99.90
39277;DHT22;63149;48.086;-1.606;2023-07-29T06:40:55;19.00;99.90
39277;DHT22;63149;48.086;-1.606;2023-07-29T06:43:22;19.10;99.90
39277;DHT22;63149;48.086;-1.606;2023-07-29T06:45:51;19.10;99.90
39277;DHT22;63149;48.086;-1.606;2023-07-29T06:48:18;19.10;99.90
39277;DHT22;63149;48.086;-1.606;2023-07-29T06:50:45;19.10;99.90
39277;DHT22;63149;48.086;-1.606;2023-07-29T06:53:12;19.10;99.90
39277;DHT22;63149;48.086;-1.606;2023-07-29T06:55:39;19.20;99.90
39277;DHT22;63149;48.086;-1.606;2023-07-29T06:58:07;19.20;99.90
39277;DHT22;63149;48.086;-1.606;2023-07-29T07:00:34;19.20;99.90
39277;DHT22;63149;48.086;-1.606;2023-07-29T07:03:02;19.30;99.90
39277;DHT22;63149;48.086;-1.606;2023-07-29T07:05:29;19.30;99.90
39277;DHT22;63149;48.086;-1.606;2023-07-29T07:07:56;19.30;99.90
39277;DHT22;63149;48.086;-1.606;2023-07-29T07:10:23;19.30;99.90
39277;DHT22;63149;48.086;-1.606;2023-07-29T07:12:50;19.30;99.90
39277;DHT22;63149;48.086;-1.606;2023-07-29T07:15:17;19.40;99.90
39277;DHT22;63149;48.086;-1.606;2023-07-29T07:17:44;19.40;99.90
39277;DHT22;63149;48.086;-1.606;2023-07-29T07:20:12;19.40;99.90
39277;DHT22;63149;48.086;-1.606;2023-07-29T07:22:39;19.50;99.90
39277;DHT22;63149;48.086;-1.606;2023-07-29T07:25:07;19.50;99.90
39277;DHT22;63149;48.086;-1.606;2023-07-29T07:27:34;19.60;99.90
39277;DHT22;63149;48.086;-1.606;2023-07-29T07:30:01;19.50;99.90
39277;DHT22;63149;48.086;-1.606;2023-07-29T07:32:28;19.50;99.90
39277;DHT22;63149;48.086;-1.606;2023-07-29T07:34:55;19.60;99.90
39277;DHT22;63149;48.086;-1.606;2023-07-29T07:37:23;19.60;99.90
39277;DHT22;63149;48.086;-1.606;2023-07-29T07:39:50;19.70;99.90
39277;DHT22;63149;48.086;-1.606;2023-07-29T07:42:17;19.70;99.90
39277;DHT22;63149;48.086;-1.606;2023-07-29T07:44:44;19.70;99.90
39277;DHT22;63149;48.086;-1.606;2023-07-29T07:47:11;19.70;99.90
39277;DHT22;63149;48.086;-1.606;2023-07-29T07:49:37;19.70;99.90
39277;DHT22;63149;48.086;-1.606;2023-07-29T07:52:05;19.70;99.90
39277;DHT22;63149;48.086;-1.606;2023-07-29T07:54:33;19.80;99.90
39277;DHT22;63149;48.086;-1.606;2023-07-29T07:57:00;19.80;99.90
39277;DHT22;63149;48.086;-1.606;2023-07-29T07:59:27;19.80;99.90
39277;DHT22;63149;48.086;-1.606;2023-07-29T08:01:54;19.90;99.90
39277;DHT22;63149;48.086;-1.606;2023-07-29T08:04:21;19.90;99.90
39277;DHT22;63149;48.086;-1.606;2023-07-29T08:06:48;19.90;99.90
39277;DHT22;63149;48.086;-1.606;2023-07-29T08:11:52;20.00;99.90
39277;DHT22;63149;48.086;-1.606;2023-07-29T08:14:19;20.00;99.90
39277;DHT22;63149;48.086;-1.606;2023-07-29T08:16:46;20.10;99.90
39277;DHT22;63149;48.086;-1.606;2023-07-29T08:19:13;20.10;99.90
39277;DHT22;63149;48.086;-1.606;2023-07-29T08:21:40;20.10;99.90
39277;DHT22;63149;48.086;-1.606;2023-07-29T08:24:07;20.20;99.90
39277;DHT22;63149;48.086;-1.606;2023-07-29T08:26:35;20.30;99.90
39277;DHT22;63149;48.086;-1.606;2023-07-29T08:29:03;20.40;99.90
39277;DHT22;63149;48.086;-1.606;2023-07-29T08:31:30;20.40;99.90
39277;DHT22;63149;48.086;-1.606;2023-07-29T08:33:59;20.50;99.90
39277;DHT22;63149;48.086;-1.606;2023-07-29T08:36:26;20.60;99.90
39277;DHT22;63149;48.086;-1.606;2023-07-29T08:38:53;20.70;99.90
39277;DHT22;63149;48.086;-1.606;2023-07-29T08:41:25;20.80;99.90
39277;DHT22;63149;48.086;-1.606;2023-07-29T08:44:01;21.00;99.90
39277;DHT22;63149;48.086;-1.606;2023-07-29T08:46:34;21.30;99.90
39277;DHT22;63149;48.086;-1.606;2023-07-29T08:49:01;21.40;99.90
39277;DHT22;63149;48.086;-1.606;2023-07-29T08:51:29;21.60;99.90
39277;DHT22;63149;48.086;-1.606;2023-07-29T08:53:58;21.90;99.90
39277;DHT22;63149;48.086;-1.606;2023-07-29T08:56:26;22.00;99.90
39277;DHT22;63149;48.086;-1.606;2023-07-29T08:58:54;22.20;99.90
39277;DHT22;63149;48.086;-1.606;2023-07-29T09:06:33;22.80;99.90
39277;DHT22;63149;48.086;-1.606;2023-07-29T09:19:25;23.20;99.90
39277;DHT22;63149;48.086;-1.606;2023-07-29T09:21:54;23.40;99.90
39277;DHT22;63149;48.086;-1.606;2023-07-29T09:24:21;23.40;99.90
39277;DHT22;63149;48.086;-1.606;2023-07-29T09:29:24;23.70;99.90
39277;DHT22;63149;48.086;-1.606;2023-07-29T09:31:54;23.80;99.90
39277;DHT22;63149;48.086;-1.606;2023-07-29T09:37:22;24.10;99.90
39277;DHT22;63149;48.086;-1.606;2023-07-29T09:45:01;24.50;99.90
39277;DHT22;63149;48.086;-1.606;2023-07-29T09:47:28;24.60;99.90
39277;DHT22;63149;48.086;-1.606;2023-07-29T09:49:55;24.70;99.90
39277;DHT22;63149;48.086;-1.606;2023-07-29T09:52:24;24.80;99.90
39277;DHT22;63149;48.086;-1.606;2023-07-29T09:54:51;25.00;99.90
39277;DHT22;63149;48.086;-1.606;2023-07-29T10:05:06;25.40;99.90
39277;DHT22;63149;48.086;-1.606;2023-07-29T10:07:37;25.60;99.90
39277;DHT22;63149;48.086;-1.606;2023-07-29T10:12:39;25.80;99.90
39277;DHT22;63149;48.086;-1.606;2023-07-29T10:22:56;26.20;99.90
39277;DHT22;63149;48.086;-1.606;2023-07-29T10:25:32;26.30;99.90
39277;DHT22;63149;48.086;-1.606;2023-07-29T10:28:04;26.30;99.90
39277;DHT22;63149;48.086;-1.606;2023-07-29T10:30:31;26.40;99.90
39277;DHT22;63149;48.086;-1.606;2023-07-29T10:33:01;26.60;99.90
39277;DHT22;63149;48.086;-1.606;2023-07-29T10:35:28;26.70;99.90
39277;DHT22;63149;48.086;-1.606;2023-07-29T10:37:57;26.80;99.90
39277;DHT22;63149;48.086;-1.606;2023-07-29T10:40:24;27.00;99.90
39277;DHT22;63149;48.086;-1.606;2023-07-29T10:43:01;27.10;99.90
39277;DHT22;63149;48.086;-1.606;2023-07-29T10:45:37;27.20;99.90
39277;DHT22;63149;48.086;-1.606;2023-07-29T10:53:16;27.60;99.90
39277;DHT22;63149;48.086;-1.606;2023-07-29T10:55:44;27.60;99.90
39277;DHT22;63149;48.086;-1.606;2023-07-29T10:58:15;27.80;99.90
39277;DHT22;63149;48.086;-1.606;2023-07-29T11:00:44;27.90;99.90
39277;DHT22;63149;48.086;-1.606;2023-07-29T11:03:12;27.90;99.90
39277;DHT22;63149;48.086;-1.606;2023-07-29T11:05:47;28.00;99.90
39277;DHT22;63149;48.086;-1.606;2023-07-29T11:08:26;28.10;99.90
39277;DHT22;63149;48.086;-1.606;2023-07-29T11:11:02;28.00;99.90
39277;DHT22;63149;48.086;-1.606;2023-07-29T11:13:30;28.00;99.90
39277;DHT22;63149;48.086;-1.606;2023-07-29T11:15:58;28.00;99.90
39277;DHT22;63149;48.086;-1.606;2023-07-29T11:18:28;27.90;99.90
39277;DHT22;63149;48.086;-1.606;2023-07-29T11:20:56;27.70;99.90
39277;DHT22;63149;48.086;-1.606;2023-07-29T11:23:35;27.80;99.90
39277;DHT22;63149;48.086;-1.606;2023-07-29T11:26:04;27.80;99.90
39277;DHT22;63149;48.086;-1.606;2023-07-29T11:28:37;27.70;99.90
39277;DHT22;63149;48.086;-1.606;2023-07-29T11:31:04;27.60;99.90
39277;DHT22;63149;48.086;-1.606;2023-07-29T11:33:31;27.60;99.90
39277;DHT22;63149;48.086;-1.606;2023-07-29T11:35:58;27.50;99.90
39277;DHT22;63149;48.086;-1.606;2023-07-29T11:38:25;27.20;99.90
39277;DHT22;63149;48.086;-1.606;2023-07-29T11:40:59;27.10;99.90
39277;DHT22;63149;48.086;-1.606;2023-07-29T11:43:28;27.10;99.90
39277;DHT22;63149;48.086;-1.606;2023-07-29T11:45:55;27.10;99.90
39277;DHT22;63149;48.086;-1.606;2023-07-29T11:48:31;26.90;99.90
39277;DHT22;63149;48.086;-1.606;2023-07-29T11:50:58;26.70;99.90
39277;DHT22;63149;48.086;-1.606;2023-07-29T11:53:28;26.60;99.90
39277;DHT22;63149;48.086;-1.606;2023-07-29T11:55:56;26.60;99.90
39277;DHT22;63149;48.086;-1.606;2023-07-29T11:58:23;26.40;99.90
39277;DHT22;63149;48.086;-1.606;2023-07-29T12:00:51;26.30;99.90
39277;DHT22;63149;48.086;-1.606;2023-07-29T12:03:18;26.20;99.90
39277;DHT22;63149;48.086;-1.606;2023-07-29T12:05:45;26.20;99.90
39277;DHT22;63149;48.086;-1.606;2023-07-29T12:08:13;26.20;99.90
39277;DHT22;63149;48.086;-1.606;2023-07-29T12:10:40;26.20;99.90
39277;DHT22;63149;48.086;-1.606;2023-07-29T12:13:09;26.00;99.90
39277;DHT22;63149;48.086;-1.606;2023-07-29T12:15:38;25.90;99.90
39277;DHT22;63149;48.086;-1.606;2023-07-29T12:18:05;25.90;99.90
39277;DHT22;63149;48.086;-1.606;2023-07-29T12:20:32;25.80;99.90
39277;DHT22;63149;48.086;-1.606;2023-07-29T12:23:00;25.80;99.90
39277;DHT22;63149;48.086;-1.606;2023-07-29T12:25:28;25.80;99.90
39277;DHT22;63149;48.086;-1.606;2023-07-29T12:27:55;25.80;99.90
39277;DHT22;63149;48.086;-1.606;2023-07-29T12:30:24;25.80;99.90
39277;DHT22;63149;48.086;-1.606;2023-07-29T12:32:51;25.90;99.90
39277;DHT22;63149;48.086;-1.606;2023-07-29T12:35:18;25.90;99.90
39277;DHT22;63149;48.086;-1.606;2023-07-29T12:37:45;25.90;99.90
39277;DHT22;63149;48.086;-1.606;2023-07-29T12:40:22;25.90;99.90
39277;DHT22;63149;48.086;-1.606;2023-07-29T12:42:50;26.00;99.90
39277;DHT22;63149;48.086;-1.606;2023-07-29T12:45:17;25.90;99.90
39277;DHT22;63149;48.086;-1.606;2023-07-29T12:47:46;25.80;99.90
39277;DHT22;63149;48.086;-1.606;2023-07-29T12:50:13;25.80;99.90
39277;DHT22;63149;48.086;-1.606;2023-07-29T12:52:39;25.80;99.90
39277;DHT22;63149;48.086;-1.606;2023-07-29T12:55:07;25.80;99.90
39277;DHT22;63149;48.086;-1.606;2023-07-29T12:57:39;25.80;99.90
39277;DHT22;63149;48.086;-1.606;2023-07-29T13:00:07;25.80;99.90
39277;DHT22;63149;48.086;-1.606;2023-07-29T13:02:35;25.70;99.90
39277;DHT22;63149;48.086;-1.606;2023-07-29T13:05:04;25.60;99.90
39277;DHT22;63149;48.086;-1.606;2023-07-29T13:07:31;25.50;99.90
39277;DHT22;63149;48.086;-1.606;2023-07-29T13:09:58;25.40;99.90
39277;DHT22;63149;48.086;-1.606;2023-07-29T13:12:25;25.20;99.90
39277;DHT22;63149;48.086;-1.606;2023-07-29T13:14:52;25.20;99.90
39277;DHT22;63149;48.086;-1.606;2023-07-29T13:17:19;25.10;99.90
39277;DHT22;63149;48.086;-1.606;2023-07-29T13:19:47;25.00;99.90
39277;DHT22;63149;48.086;-1.606;2023-07-29T13:22:15;25.00;99.90
39277;DHT22;63149;48.086;-1.606;2023-07-29T13:24:42;24.90;99.90
39277;DHT22;63149;48.086;-1.606;2023-07-29T13:27:09;25.00;99.90
39277;DHT22;63149;48.086;-1.606;2023-07-29T13:29:36;24.90;99.90
39277;DHT22;63149;48.086;-1.606;2023-07-29T13:32:04;24.90;99.90
39277;DHT22;63149;48.086;-1.606;2023-07-29T13:34:31;24.90;99.90
39277;DHT22;63149;48.086;-1.606;2023-07-29T13:36:59;24.80;99.90
39277;DHT22;63149;48.086;-1.606;2023-07-29T13:39:28;24.80;99.90
39277;DHT22;63149;48.086;-1.606;2023-07-29T13:41:55;24.70;99.90
39277;DHT22;63149;48.086;-1.606;2023-07-29T13:44:22;24.60;99.90
39277;DHT22;63149;48.086;-1.606;2023-07-29T13:46:49;24.60;99.90
39277;DHT22;63149;48.086;-1.606;2023-07-29T13:49:17;24.60;99.90
39277;DHT22;63149;48.086;-1.606;2023-07-29T13:51:44;24.60;99.90
39277;DHT22;63149;48.086;-1.606;2023-07-29T13:54:11;24.50;99.90
39277;DHT22;63149;48.086;-1.606;2023-07-29T13:56:39;24.50;99.90
39277;DHT22;63149;48.086;-1.606;2023-07-29T13:59:07;24.60;99.90
39277;DHT22;63149;48.086;-1.606;2023-07-29T14:01:34;24.60;99.90
39277;DHT22;63149;48.086;-1.606;2023-07-29T14:04:01;24.60;99.90
39277;DHT22;63149;48.086;-1.606;2023-07-29T14:06:29;24.60;99.90
39277;DHT22;63149;48.086;-1.606;2023-07-29T14:08:56;24.60;99.90
39277;DHT22;63149;48.086;-1.606;2023-07-29T14:11:23;24.50;99.90
39277;DHT22;63149;48.086;-1.606;2023-07-29T14:13:51;24.50;99.90
39277;DHT22;63149;48.086;-1.606;2023-07-29T14:16:18;24.50;99.90
39277;DHT22;63149;48.086;-1.606;2023-07-29T14:18:45;24.50;99.90
39277;DHT22;63149;48.086;-1.606;2023-07-29T14:21:13;24.50;99.90
39277;DHT22;63149;48.086;-1.606;2023-07-29T14:23:40;24.50;99.90
39277;DHT22;63149;48.086;-1.606;2023-07-29T14:26:07;24.50;99.90
39277;DHT22;63149;48.086;-1.606;2023-07-29T14:28:35;24.50;99.90
39277;DHT22;63149;48.086;-1.606;2023-07-29T14:31:04;24.50;99.90
39277;DHT22;63149;48.086;-1.606;2023-07-29T14:33:31;24.50;99.90
39277;DHT22;63149;48.086;-1.606;2023-07-29T14:35:58;24.40;99.90
39277;DHT22;63149;48.086;-1.606;2023-07-29T14:38:25;24.30;99.90
39277;DHT22;63149;48.086;-1.606;2023-07-29T14:40:53;24.30;99.90
39277;DHT22;63149;48.086;-1.606;2023-07-29T14:43:22;24.40;99.90
39277;DHT22;63149;48.086;-1.606;2023-07-29T14:45:49;24.30;99.90
39277;DHT22;63149;48.086;-1.606;2023-07-29T14:48:18;24.30;99.90
39277;DHT22;63149;48.086;-1.606;2023-07-29T14:50:45;24.20;99.90
39277;DHT22;63149;48.086;-1.606;2023-07-29T14:53:12;24.20;99.90
39277;DHT22;63149;48.086;-1.606;2023-07-29T14:55:39;24.30;99.90
39277;DHT22;63149;48.086;-1.606;2023-07-29T14:58:06;24.30;99.90
39277;DHT22;63149;48.086;-1.606;2023-07-29T15:00:33;24.30;99.90
39277;DHT22;63149;48.086;-1.606;2023-07-29T15:03:00;24.30;99.90
39277;DHT22;63149;48.086;-1.606;2023-07-29T15:05:29;24.20;99.90
39277;DHT22;63149;48.086;-1.606;2023-07-29T15:07:56;24.20;99.90
39277;DHT22;63149;48.086;-1.606;2023-07-29T15:10:23;24.20;99.90
39277;DHT22;63149;48.086;-1.606;2023-07-29T15:12:51;24.20;99.90
39277;DHT22;63149;48.086;-1.606;2023-07-29T15:15:18;24.10;99.90
39277;DHT22;63149;48.086;-1.606;2023-07-29T15:17:45;24.10;99.90
39277;DHT22;63149;48.086;-1.606;2023-07-29T15:20:12;24.10;99.90
39277;DHT22;63149;48.086;-1.606;2023-07-29T15:22:41;24.20;99.90
39277;DHT22;63149;48.086;-1.606;2023-07-29T15:25:09;24.20;99.90
39277;DHT22;63149;48.086;-1.606;2023-07-29T15:27:37;24.20;99.90
39277;DHT22;63149;48.086;-1.606;2023-07-29T15:30:05;24.20;99.90
39277;DHT22;63149;48.086;-1.606;2023-07-29T15:32:32;24.10;99.90
39277;DHT22;63149;48.086;-1.606;2023-07-29T15:34:59;24.00;99.90
39277;DHT22;63149;48.086;-1.606;2023-07-29T15:37:26;24.00;99.90
39277;DHT22;63149;48.086;-1.606;2023-07-29T15:39:54;23.90;99.90
39277;DHT22;63149;48.086;-1.606;2023-07-29T15:42:21;23.90;99.90
39277;DHT22;63149;48.086;-1.606;2023-07-29T15:44:48;23.80;99.90
39277;DHT22;63149;48.086;-1.606;2023-07-29T15:47:15;23.90;99.90
39277;DHT22;63149;48.086;-1.606;2023-07-29T15:49:44;23.90;99.90
39277;DHT22;63149;48.086;-1.606;2023-07-29T15:52:11;23.80;99.90
39277;DHT22;63149;48.086;-1.606;2023-07-29T15:54:40;23.70;99.90
39277;DHT22;63149;48.086;-1.606;2023-07-29T15:57:09;23.70;99.90
39277;DHT22;63149;48.086;-1.606;2023-07-29T15:59:36;23.60;99.90
39277;DHT22;63149;48.086;-1.606;2023-07-29T16:02:03;23.60;99.90
39277;DHT22;63149;48.086;-1.606;2023-07-29T16:04:30;23.60;99.90
39277;DHT22;63149;48.086;-1.606;2023-07-29T16:06:57;23.50;99.90
39277;DHT22;63149;48.086;-1.606;2023-07-29T16:09:24;23.40;99.90
39277;DHT22;63149;48.086;-1.606;2023-07-29T16:11:52;23.50;99.90
39277;DHT22;63149;48.086;-1.606;2023-07-29T16:14:20;23.40;99.90
39277;DHT22;63149;48.086;-1.606;2023-07-29T16:16:49;23.30;99.90
39277;DHT22;63149;48.086;-1.606;2023-07-29T16:19:23;23.30;99.90
39277;DHT22;63149;48.086;-1.606;2023-07-29T16:21:50;23.20;99.90
39277;DHT22;63149;48.086;-1.606;2023-07-29T16:24:17;23.10;99.90
39277;DHT22;63149;48.086;-1.606;2023-07-29T16:26:44;23.00;99.90
39277;DHT22;63149;48.086;-1.606;2023-07-29T16:29:10;22.80;99.90
39277;DHT22;63149;48.086;-1.606;2023-07-29T16:31:39;22.80;99.90
39277;DHT22;63149;48.086;-1.606;2023-07-29T16:34:06;22.70;99.90
39277;DHT22;63149;48.086;-1.606;2023-07-29T16:36:33;22.70;99.90
39277;DHT22;63149;48.086;-1.606;2023-07-29T16:38:59;22.70;99.90
39277;DHT22;63149;48.086;-1.606;2023-07-29T16:41:26;22.60;99.90
39277;DHT22;63149;48.086;-1.606;2023-07-29T16:43:53;22.50;99.90
39277;DHT22;63149;48.086;-1.606;2023-07-29T16:46:20;22.40;99.90
39277;DHT22;63149;48.086;-1.606;2023-07-29T16:48:48;22.40;99.90
39277;DHT22;63149;48.086;-1.606;2023-07-29T16:51:15;22.20;99.90
39277;DHT22;63149;48.086;-1.606;2023-07-29T16:53:42;22.10;99.90
39277;DHT22;63149;48.086;-1.606;2023-07-29T16:56:09;22.00;99.90
39277;DHT22;63149;48.086;-1.606;2023-07-29T16:58:36;21.90;99.90
39277;DHT22;63149;48.086;-1.606;2023-07-29T17:01:03;21.80;99.90
39277;DHT22;63149;48.086;-1.606;2023-07-29T17:03:30;21.70;99.90
39277;DHT22;63149;48.086;-1.606;2023-07-29T17:05:58;21.60;99.90
39277;DHT22;63149;48.086;-1.606;2023-07-29T17:08:25;21.40;99.90
39277;DHT22;63149;48.086;-1.606;2023-07-29T17:10:52;21.40;99.90
39277;DHT22;63149;48.086;-1.606;2023-07-29T17:13:19;21.30;99.90
39277;DHT22;63149;48.086;-1.606;2023-07-29T17:15:46;21.20;99.90
39277;DHT22;63149;48.086;-1.606;2023-07-29T17:18:13;21.20;99.90
39277;DHT22;63149;48.086;-1.606;2023-07-29T17:20:40;21.20;99.90
39277;DHT22;63149;48.086;-1.606;2023-07-29T17:23:08;21.20;99.90
39277;DHT22;63149;48.086;-1.606;2023-07-29T17:25:35;21.10;99.90
39277;DHT22;63149;48.086;-1.606;2023-07-29T17:28:02;21.20;99.90
39277;DHT22;63149;48.086;-1.606;2023-07-29T17:30:31;21.10;99.90
39277;DHT22;63149;48.086;-1.606;2023-07-29T17:33:00;20.90;99.90
39277;DHT22;63149;48.086;-1.606;2023-07-29T17:35:27;20.90;99.90
39277;DHT22;63149;48.086;-1.606;2023-07-29T17:37:54;20.80;99.90
39277;DHT22;63149;48.086;-1.606;2023-07-29T17:40:23;20.90;99.90
39277;DHT22;63149;48.086;-1.606;2023-07-29T17:42:49;20.80;99.90
39277;DHT22;63149;48.086;-1.606;2023-07-29T17:45:16;20.80;99.90
39277;DHT22;63149;48.086;-1.606;2023-07-29T17:47:43;20.70;99.90
39277;DHT22;63149;48.086;-1.606;2023-07-29T17:50:10;20.60;99.90
39277;DHT22;63149;48.086;-1.606;2023-07-29T17:52:37;20.60;99.90
39277;DHT22;63149;48.086;-1.606;2023-07-29T17:55:04;20.60;99.90
39277;DHT22;63149;48.086;-1.606;2023-07-29T17:57:32;20.60;99.90
39277;DHT22;63149;48.086;-1.606;2023-07-29T17:59:59;20.60;99.90
39277;DHT22;63149;48.086;-1.606;2023-07-29T18:02:29;20.50;99.90
39277;DHT22;63149;48.086;-1.606;2023-07-29T18:04:56;20.50;99.90
39277;DHT22;63149;48.086;-1.606;2023-07-29T18:07:23;20.50;99.90
39277;DHT22;63149;48.086;-1.606;2023-07-29T18:09:50;20.50;99.90
39277;DHT22;63149;48.086;-1.606;2023-07-29T18:12:17;20.50;99.90
39277;DHT22;63149;48.086;-1.606;2023-07-29T18:14:45;20.40;99.90
39277;DHT22;63149;48.086;-1.606;2023-07-29T18:17:12;20.30;99.90
39277;DHT22;63149;48.086;-1.606;2023-07-29T18:19:39;20.20;99.90
39277;DHT22;63149;48.086;-1.606;2023-07-29T18:22:08;20.10;99.90
39277;DHT22;63149;48.086;-1.606;2023-07-29T18:24:35;20.20;99.90
39277;DHT22;63149;48.086;-1.606;2023-07-29T18:27:02;20.10;99.90
39277;DHT22;63149;48.086;-1.606;2023-07-29T18:29:29;20.10;99.90
39277;DHT22;63149;48.086;-1.606;2023-07-29T18:31:57;20.10;99.90
39277;DHT22;63149;48.086;-1.606;2023-07-29T18:34:24;20.10;99.90
39277;DHT22;63149;48.086;-1.606;2023-07-29T18:36:51;20.10;99.90
39277;DHT22;63149;48.086;-1.606;2023-07-29T18:39:18;20.10;99.90
39277;DHT22;63149;48.086;-1.606;2023-07-29T18:41:45;20.20;99.90
39277;DHT22;63149;48.086;-1.606;2023-07-29T18:44:12;20.10;99.90
39277;DHT22;63149;48.086;-1.606;2023-07-29T18:46:38;20.10;99.90
39277;DHT22;63149;48.086;-1.606;2023-07-29T18:49:07;20.10;99.90
39277;DHT22;63149;48.086;-1.606;2023-07-29T18:51:34;20.00;99.90
39277;DHT22;63149;48.086;-1.606;2023-07-29T18:54:02;20.00;99.90
39277;DHT22;63149;48.086;-1.606;2023-07-29T18:56:29;20.00;99.90
39277;DHT22;63149;48.086;-1.606;2023-07-29T18:58:56;20.00;99.90
39277;DHT22;63149;48.086;-1.606;2023-07-29T19:01:23;20.00;99.90
39277;DHT22;63149;48.086;-1.606;2023-07-29T19:03:50;20.00;99.90
39277;DHT22;63149;48.086;-1.606;2023-07-29T19:06:18;20.00;99.90
39277;DHT22;63149;48.086;-1.606;2023-07-29T19:08:45;20.00;99.90
39277;DHT22;63149;48.086;-1.606;2023-07-29T19:11:14;19.90;99.90
39277;DHT22;63149;48.086;-1.606;2023-07-29T19:13:41;19.90;99.90
39277;DHT22;63149;48.086;-1.606;2023-07-29T19:16:08;19.90;99.90
39277;DHT22;63149;48.086;-1.606;2023-07-29T19:18:35;19.90;99.90
39277;DHT22;63149;48.086;-1.606;2023-07-29T19:21:02;19.90;99.90
39277;DHT22;63149;48.086;-1.606;2023-07-29T19:23:30;19.90;99.90
39277;DHT22;63149;48.086;-1.606;2023-07-29T19:25:57;19.90;99.90
39277;DHT22;63149;48.086;-1.606;2023-07-29T19:28:24;19.90;99.90
39277;DHT22;63149;48.086;-1.606;2023-07-29T19:30:52;19.90;99.90
39277;DHT22;63149;48.086;-1.606;2023-07-29T19:33:19;19.80;99.90
39277;DHT22;63149;48.086;-1.606;2023-07-29T19:35:48;19.90;99.90
39277;DHT22;63149;48.086;-1.606;2023-07-29T19:38:19;19.80;99.90
39277;DHT22;63149;48.086;-1.606;2023-07-29T19:40:47;19.80;99.90
39277;DHT22;63149;48.086;-1.606;2023-07-29T19:43:14;19.80;99.90
39277;DHT22;63149;48.086;-1.606;2023-07-29T19:45:45;19.80;99.90
39277;DHT22;63149;48.086;-1.606;2023-07-29T19:48:12;19.80;99.90
39277;DHT22;63149;48.086;-1.606;2023-07-29T19:50:39;19.80;99.90
39277;DHT22;63149;48.086;-1.606;2023-07-29T19:53:06;19.80;99.90
39277;DHT22;63149;48.086;-1.606;2023-07-29T19:55:34;19.70;99.90
39277;DHT22;63149;48.086;-1.606;2023-07-29T19:58:02;19.70;99.90
39277;DHT22;63149;48.086;-1.606;2023-07-29T20:00:29;19.70;99.90
39277;DHT22;63149;48.086;-1.606;2023-07-29T20:02:57;19.70;99.90
39277;DHT22;63149;48.086;-1.606;2023-07-29T20:05:24;19.60;99.90
39277;DHT22;63149;48.086;-1.606;2023-07-29T20:07:51;19.60;99.90
39277;DHT22;63149;48.086;-1.606;2023-07-29T20:10:17;19.60;99.90
39277;DHT22;63149;48.086;-1.606;2023-07-29T20:12:44;19.60;99.90
39277;DHT22;63149;48.086;-1.606;2023-07-29T20:15:13;19.50;99.90
39277;DHT22;63149;48.086;-1.606;2023-07-29T20:17:39;19.50;99.90
39277;DHT22;63149;48.086;-1.606;2023-07-29T20:20:09;19.50;99.90
39277;DHT22;63149;48.086;-1.606;2023-07-29T20:22:36;19.40;99.90
39277;DHT22;63149;48.086;-1.606;2023-07-29T20:25:04;19.50;99.90
39277;DHT22;63149;48.086;-1.606;2023-07-29T20:27:31;19.50;99.90
39277;DHT22;63149;48.086;-1.606;2023-07-29T20:29:58;19.40;99.90
39277;DHT22;63149;48.086;-1.606;2023-07-29T20:32:26;19.40;99.90
39277;DHT22;63149;48.086;-1.606;2023-07-29T20:34:53;19.40;99.90
39277;DHT22;63149;48.086;-1.606;2023-07-29T20:37:20;19.30;99.90
39277;DHT22;63149;48.086;-1.606;2023-07-29T20:39:47;19.30;99.90
39277;DHT22;63149;48.086;-1.606;2023-07-29T20:42:14;19.30;99.90
39277;DHT22;63149;48.086;-1.606;2023-07-29T20:44:41;19.30;99.90
39277;DHT22;63149;48.086;-1.606;2023-07-29T20:47:08;19.30;99.90
39277;DHT22;63149;48.086;-1.606;2023-07-29T20:49:37;19.30;99.90
39277;DHT22;63149;48.086;-1.606;2023-07-29T20:52:05;19.30;99.90
39277;DHT22;63149;48.086;-1.606;2023-07-29T20:54:32;19.20;99.90
39277;DHT22;63149;48.086;-1.606;2023-07-29T20:56:59;19.20;99.90
39277;DHT22;63149;48.086;-1.606;2023-07-29T20:59:26;19.20;99.90
39277;DHT22;63149;48.086;-1.606;2023-07-29T21:01:52;19.20;99.90
39277;DHT22;63149;48.086;-1.606;2023-07-29T21:04:19;19.20;99.90
39277;DHT22;63149;48.086;-1.606;2023-07-29T21:06:48;19.20;99.90
39277;DHT22;63149;48.086;-1.606;2023-07-29T21:09:15;19.20;99.90
39277;DHT22;63149;48.086;-1.606;2023-07-29T21:11:42;19.20;99.90